Meteo Giornale » Osservazioni meteo Stati Uniti (USA) » Stanley Ranger Station
ore: 06:51 - Osservazioni Meteo Stanley Ranger Station
Lat. 44° 12' N Lon. 114° 56' W Alt. 1980 metri s.l.m.
1 °C
Sereno
Temp. 24 Ore
-3 °C
24 °C
Nord
0 Km/h
Dew point -6 °C
Umidità 59 %
Visibilità 11 Km
Il sole sorge alle ore 07:03
Il sole tramonta alle ore 20:16
| Data e Ora | Cielo e Fenomeni | T °C | DP °C | Um. % | Pres. hPa | Vis. km | Vento km/h | |
|---|---|---|---|---|---|---|---|---|
| Oggi h: 06:51 | Sereno | 1 | -6 | 59 | 1019 | 11 | N 0 | |
| Oggi h: 05:51 | Sereno | 2 | -4 | 64 | 1019 | 11 | N 0 | |
| Oggi h: 04:51 | Sereno | 2 | -6 | 55 | 1019 | 11 | N 0 | |
| Oggi h: 03:51 | Sereno | 2 | -6 | 55 | 1019 | 11 | N 0 | |
| Oggi h: 02:51 | Sereno | 3 | -6 | 51 | 1019 | 11 | N 0 | |
| Oggi h: 01:51 | Sereno | 4 | -7 | 44 | 1019 | 11 | N 5.5 | |
| Oggi h: 00:51 | Sereno | 6 | -6 | 41 | 1019 | 11 | N 0 | |
| Ieri h: 23:51 | Sereno | 7 | -7 | 36 | 1019 | 11 | N 5.5 | |
| Ieri h: 22:51 | Sereno | 10 | -7 | 29 | 1019 | 10 | N 5.5 | |
| Ieri h: 21:51 | Sereno | 9 | -8 | 29 | 1019 | 10 | N 0 | |
| Ieri h: 20:51 | Sereno | 12 | -8 | 23 | 1019 | 10 | S 7.4 | |
| Ieri h: 19:51 | Sereno | 18 | -7 | 17 | 1018 | 10 | N 0 | |
| Ieri h: 18:51 | Sereno | 23 | -10 | 10 | 1018 | 10 | N 5.5 | |
| Ieri h: 17:51 | Sereno | 23 | -9 | 11 | 1018 | 0 | N 7.4 | |
| Ieri h: 16:51 | Sereno | 24 | -9 | 10 | 1019 | 0 | N 0 | |
| Ieri h: 15:51 | Sereno | 24 | -11 | 8 | 1019 | 0 | N 11.1 | |
| Ieri h: 14:51 | Sereno | 23 | -12 | 8 | 1020 | 0 | N 9.3 | |
| Ieri h: 13:51 | Sereno | 22 | -12 | 9 | 1020 | 0 | N 7.4 | |
| Ieri h: 12:51 | Sereno | 20 | -7 | 15 | 1021 | 0 | N 7.4 | |
| Ieri h: 11:51 | Sereno | 16 | -6 | 21 | 1022 | 0 | N 9.3 | |
| Ieri h: 10:51 | Sereno | 11 | -4 | 34 | 1022 | 0 | N 9.3 | |
| Ieri h: 09:51 | Sereno | 7 | -5 | 42 | 1023 | 0 | N 0 | |
| Ieri h: 08:51 | Sereno | 3 | -7 | 47 | 1023 | 0 | N 5.5 | |
| Ieri h: 07:51 | Sereno | -3 | -7 | 73 | 1023 | 0 | N 0 | |



